Time;durP1;ratioP1;P1;durP2;ratioP2;P2;SDS_P1;SDS_P2;PMS_P1;PMS_P2;Temp;Humidity;BMP_temperature;BMP_pressure;BME280_temperature;BME280_humidity;BME280_pressure;Samples;Min_cycle;Max_cycle;Signal;HPM_P1;HPM_P2
2022/12/18 00:02:04;;;;;;;8.77;5.22;;;-1.90;99.90;;;;;;5091106;28;20410;-58
2022/12/18 00:04:31;;;;;;;9.02;5.25;;;-2.00;99.90;;;;;;5091186;28;20417;-55
2022/12/18 00:06:57;;;;;;;8.40;5.15;;;-2.00;99.90;;;;;;5090615;28;20916;-57
2022/12/18 00:09:24;;;;;;;7.93;5.18;;;-2.00;99.90;;;;;;5091305;28;20426;-56
2022/12/18 00:11:51;;;;;;;8.50;5.28;;;-1.90;99.90;;;;;;5091208;28;20475;-55
2022/12/18 00:14:18;;;;;;;8.65;5.30;;;-1.90;99.90;;;;;;5091049;28;20409;-57
2022/12/18 00:16:46;;;;;;;11.02;7.00;;;-1.90;99.90;;;;;;5090759;28;20463;-58
2022/12/18 00:19:14;;;;;;;14.45;8.10;;;-1.80;99.90;;;;;;5090869;28;20421;-57
2022/12/18 00:21:42;;;;;;;10.15;6.03;;;-1.80;99.90;;;;;;5091213;28;20437;-56
2022/12/18 00:24:10;;;;;;;9.10;5.82;;;-1.80;96.00;;;;;;5091041;28;20413;-57
2022/12/18 00:26:38;;;;;;;9.97;6.07;;;-2.00;99.90;;;;;;5090858;28;20841;-56
2022/12/18 00:29:08;;;;;;;8.98;5.22;;;-1.80;99.90;;;;;;5090572;28;20426;-57
2022/12/18 00:31:35;;;;;;;6.90;4.65;;;-1.80;1.00;;;;;;5090918;28;20409;-57
2022/12/18 00:34:02;;;;;;;6.32;4.45;;;-1.80;1.00;;;;;;5090646;28;20475;-58
2022/12/18 00:36:33;;;;;;;7.15;4.65;;;-1.80;1.00;;;;;;5090653;28;20413;-56
2022/12/18 00:39:01;;;;;;;8.15;4.85;;;-1.80;1.00;;;;;;5090895;28;20798;-57
2022/12/18 00:44:15;;;;;;;6.97;4.80;;;-2.00;8.40;;;;;;5090565;28;20436;-55
2022/12/18 00:46:43;;;;;;;7.40;4.65;;;-1.80;1.00;;;;;;5090575;28;20414;-57
2022/12/18 00:49:10;;;;;;;7.20;4.90;;;-1.80;1.00;;;;;;5090666;28;20425;-57
2022/12/18 00:51:38;;;;;;;7.72;4.78;;;-1.80;1.00;;;;;;5090445;28;20931;-57
2022/12/18 00:54:05;;;;;;;8.38;4.88;;;-1.90;1.00;;;;;;5090508;28;20417;-57
2022/12/18 00:56:31;;;;;;;7.63;4.57;;;-2.00;1.00;;;;;;5090213;28;20417;-58
2022/12/18 00:58:58;;;;;;;6.38;4.57;;;-2.00;1.00;;;;;;5090160;28;20417;-58
2022/12/18 01:01:25;;;;;;;7.95;4.80;;;-1.90;1.00;;;;;;5090626;28;20418;-57
2022/12/18 01:03:51;;;;;;;8.98;4.90;;;-1.90;1.00;;;;;;5090610;28;20414;-56
2022/12/18 01:06:18;;;;;;;7.53;5.00;;;-1.80;47.70;;;;;;5090125;28;20815;-58
2022/12/18 01:08:46;;;;;;;7.30;4.80;;;-1.80;1.00;;;;;;5093348;28;20422;-58
2022/12/18 01:11:14;;;;;;;6.95;4.60;;;-1.90;97.90;;;;;;5094399;28;20421;-58
2022/12/18 01:13:41;;;;;;;7.57;4.97;;;-1.90;99.90;;;;;;5094273;28;20957;-57
2022/12/18 01:16:08;;;;;;;7.70;4.78;;;-1.90;99.90;;;;;;5094117;28;20463;-55
2022/12/18 01:18:35;;;;;;;7.85;5.05;;;-1.90;99.90;;;;;;5094362;28;20410;-57
2022/12/18 01:21:06;;;;;;;8.05;5.05;;;-1.90;99.90;;;;;;5094311;28;20463;-57
2022/12/18 01:23:33;;;;;;;7.28;4.50;;;-2.00;99.90;;;;;;5094237;28;20440;-58
2022/12/18 01:26:05;;;;;;;7.32;4.78;;;-1.90;99.90;;;;;;5093719;28;20417;-57
2022/12/18 01:28:32;;;;;;;7.13;5.00;;;-1.90;99.90;;;;;;5094073;28;20425;-57
2022/12/18 01:30:58;;;;;;;8.05;4.88;;;-1.90;99.90;;;;;;5095125;28;20416;-61
2022/12/18 01:33:25;;;;;;;6.72;4.80;;;-1.80;99.90;;;;;;5092820;28;20409;-60
2022/12/18 01:35:52;;;;;;;6.70;4.78;;;-1.80;99.90;;;;;;5093546;28;20414;-61
2022/12/18 01:38:18;;;;;;;8.13;4.60;;;-1.80;99.90;;;;;;5093310;28;20416;-62
2022/12/18 01:40:45;;;;;;;8.05;5.15;;;-1.70;99.90;;;;;;5093147;28;20414;-62
2022/12/18 01:43:13;;;;;;;7.13;4.90;;;-1.60;99.90;;;;;;5093337;28;20406;-62
2022/12/18 01:45:40;;;;;;;7.25;5.28;;;-1.60;99.90;;;;;;5093692;28;20448;-60
2022/12/18 01:48:08;;;;;;;7.43;5.00;;;-1.70;99.90;;;;;;5093851;28;20418;-61
2022/12/18 01:50:38;;;;;;;7.00;5.28;;;-1.70;99.90;;;;;;5103731;28;20418;-61
2022/12/18 01:53:10;;;;;;;8.20;4.95;;;-1.70;99.90;;;;;;5093143;28;20410;-61
2022/12/18 01:55:42;;;;;;;7.00;4.75;;;-1.80;99.90;;;;;;5093268;28;20413;-57
2022/12/18 01:58:09;;;;;;;7.43;4.90;;;-1.70;99.90;;;;;;5092922;28;20413;-59
2022/12/18 02:00:37;;;;;;;7.40;5.15;;;-1.90;99.90;;;;;;5092926;28;20471;-58
2022/12/18 02:03:03;;;;;;;6.45;4.38;;;-1.80;99.90;;;;;;5092928;28;20911;-60
2022/12/18 02:05:40;;;;;;;7.43;4.93;;;-1.70;99.90;;;;;;5092535;28;20459;-60
2022/12/18 02:08:13;;;;;;;7.18;4.80;;;-1.70;99.90;;;;;;5092928;28;20437;-60
2022/12/18 02:10:47;;;;;;;7.40;5.00;;;-1.70;99.90;;;;;;5092686;28;20414;-60
2022/12/18 02:13:20;;;;;;;8.30;5.13;;;-1.70;99.90;;;;;;5093125;28;20497;-59
2022/12/18 02:15:58;;;;;;;7.72;5.15;;;-1.70;99.90;;;;;;5092509;28;20964;-57
2022/12/18 02:18:29;;;;;;;7.57;5.30;;;-1.70;99.90;;;;;;5092883;28;20429;-58
2022/12/18 02:21:09;;;;;;;7.97;4.97;;;-1.70;99.90;;;;;;5091391;28;20889;-58
2022/12/18 02:23:47;;;;;;;7.25;4.85;;;-1.70;99.90;;;;;;5101108;28;20806;-58
2022/12/18 02:26:20;;;;;;;8.45;4.85;;;-1.70;99.90;;;;;;5096111;28;20412;-58
2022/12/18 02:28:51;;;;;;;7.45;5.03;;;-1.60;99.90;;;;;;5095644;28;20483;-59
2022/12/18 02:31:22;;;;;;;6.93;4.75;;;-1.60;99.90;;;;;;5092418;28;20455;-59
2022/12/18 02:33:50;;;;;;;7.30;4.88;;;-1.70;99.90;;;;;;5098292;28;20413;-56
2022/12/18 02:36:19;;;;;;;6.93;4.90;;;-1.70;99.90;;;;;;5092500;28;20414;-57
2022/12/18 02:38:47;;;;;;;7.10;4.70;;;-1.70;99.90;;;;;;5092503;28;20460;-56
2022/12/18 02:41:15;;;;;;;8.20;5.07;;;-1.70;99.90;;;;;;5092700;28;20935;-57
2022/12/18 02:43:47;;;;;;;8.02;5.25;;;-1.70;99.90;;;;;;5092691;28;20407;-57
2022/12/18 02:46:27;;;;;;;8.60;4.95;;;-1.70;99.90;;;;;;5092159;28;20409;-58
2022/12/18 02:49:00;;;;;;;6.55;4.50;;;-1.70;99.90;;;;;;5092239;28;20421;-58
2022/12/18 02:51:31;;;;;;;6.47;4.77;;;-1.70;99.90;;;;;;5092368;28;20472;-57
2022/12/18 02:54:05;;;;;;;7.75;4.93;;;-1.80;99.90;;;;;;5092724;28;20414;-58
2022/12/18 02:56:37;;;;;;;7.53;4.90;;;-1.70;99.90;;;;;;5091787;28;20409;-57
2022/12/18 02:59:09;;;;;;;6.63;4.45;;;-1.70;99.90;;;;;;5092311;28;20414;-57
2022/12/18 03:01:42;;;;;;;6.85;4.43;;;-1.60;99.90;;;;;;5092269;28;20414;-57
2022/12/18 03:04:15;;;;;;;6.55;4.57;;;-1.60;99.90;;;;;;5092368;28;20408;-55
2022/12/18 03:06:45;;;;;;;6.55;4.60;;;-1.50;99.90;;;;;;5091973;28;20417;-57
2022/12/18 03:09:18;;;;;;;7.05;4.78;;;-1.60;99.90;;;;;;5092230;28;20479;-58
2022/12/18 03:14:38;;;;;;;6.28;4.90;;;-1.60;99.90;;;;;;5092042;28;20515;-58
2022/12/18 03:17:08;;;;;;;7.53;4.88;;;-1.60;99.90;;;;;;5092131;28;20417;-57
2022/12/18 03:19:37;;;;;;;7.05;4.88;;;-1.60;99.90;;;;;;5092073;28;20406;-56
2022/12/18 03:22:06;;;;;;;6.47;4.80;;;-1.80;99.90;;;;;;5091742;28;20949;-58
2022/12/18 03:24:37;;;;;;;6.65;4.68;;;-1.70;99.90;;;;;;5091815;28;20471;-57
2022/12/18 03:27:07;;;;;;;7.05;4.82;;;-1.70;99.90;;;;;;5091343;28;20422;-58
2022/12/18 03:29:41;;;;;;;8.07;4.90;;;-1.70;99.90;;;;;;5091846;28;20479;-55
2022/12/18 03:32:12;;;;;;;6.40;4.82;;;-1.70;99.90;;;;;;5091507;28;20876;-56
2022/12/18 03:34:42;;;;;;;6.88;4.88;;;-1.80;99.90;;;;;;5091754;28;20413;-57
2022/12/18 03:37:09;;;;;;;6.15;4.72;;;-1.80;99.90;;;;;;5091149;28;20409;-58
2022/12/18 03:39:38;;;;;;;6.72;4.88;;;-1.70;99.90;;;;;;5091020;28;20535;-56
2022/12/18 03:42:11;;;;;;;6.75;4.63;;;-1.80;99.90;;;;;;5091654;28;20406;-59
2022/12/18 03:44:45;;;;;;;6.30;4.60;;;-1.70;99.90;;;;;;5091597;28;20410;-56
2022/12/18 03:47:17;;;;;;;7.07;4.93;;;-1.60;99.90;;;;;;5091303;28;20443;-57
2022/12/18 03:49:51;;;;;;;6.53;5.00;;;-1.80;99.90;;;;;;5091156;28;20425;-59
2022/12/18 03:52:23;;;;;;;8.30;4.85;;;-1.90;99.90;;;;;;5091541;28;20414;-56
2022/12/18 03:54:50;;;;;;;6.60;4.70;;;-1.80;99.90;;;;;;5091294;28;20884;-58
2022/12/18 03:57:20;;;;;;;7.95;5.00;;;-1.70;99.90;;;;;;5090976;28;20414;-57
2022/12/18 03:59:51;;;;;;;6.22;4.40;;;-1.70;99.90;;;;;;5091266;28;20406;-56
2022/12/18 04:02:19;;;;;;;6.38;4.70;;;-1.60;99.90;;;;;;5091430;28;20464;-58
2022/12/18 04:04:48;;;;;;;5.72;4.40;;;-1.70;99.90;;;;;;5091374;28;20522;-58
2022/12/18 04:07:16;;;;;;;7.60;4.68;;;-1.60;99.90;;;;;;5091113;28;20465;-58
2022/12/18 04:09:46;;;;;;;6.45;4.40;;;-1.60;99.90;;;;;;5091125;28;20467;-55
2022/12/18 04:12:13;;;;;;;6.18;4.50;;;-1.60;99.90;;;;;;5091234;28;20896;-57
2022/12/18 04:14:39;;;;;;;6.40;4.57;;;-1.60;99.90;;;;;;5090922;28;20463;-58
2022/12/18 04:17:07;;;;;;;6.32;4.10;;;-1.50;99.90;;;;;;5090458;28;20448;-58
2022/12/18 04:19:34;;;;;;;6.40;4.30;;;-1.60;99.90;;;;;;5091080;28;20912;-56
2022/12/18 04:22:00;;;;;;;6.60;4.50;;;-1.50;99.90;;;;;;5091111;28;20823;-58
2022/12/18 04:24:27;;;;;;;6.00;4.47;;;-1.60;99.90;;;;;;5091112;28;20465;-56
2022/12/18 04:26:55;;;;;;;6.10;4.40;;;-1.60;99.90;;;;;;5090373;28;20448;-56
2022/12/18 04:29:21;;;;;;;5.25;3.95;;;-1.70;99.90;;;;;;5090728;28;20426;-56
2022/12/18 04:31:48;;;;;;;6.03;3.85;;;-1.60;99.90;;;;;;5090944;28;20413;-58
2022/12/18 04:34:16;;;;;;;5.63;3.90;;;-1.60;99.90;;;;;;5090892;28;20414;-58
2022/12/18 04:36:43;;;;;;;5.82;3.60;;;-1.50;99.90;;;;;;5090565;28;20471;-59
2022/12/18 04:39:10;;;;;;;6.80;4.10;;;-1.50;42.10;;;;;;5090736;28;20418;-56
2022/12/18 04:41:37;;;;;;;7.75;4.63;;;-1.30;23.20;;;;;;5090741;28;20413;-58
2022/12/18 04:44:04;;;;;;;5.47;4.13;;;-1.40;1.00;;;;;;5090216;28;20443;-58
2022/12/18 04:46:31;;;;;;;5.93;3.90;;;-1.40;1.00;;;;;;5090490;28;20467;-55
2022/12/18 04:48:57;;;;;;;7.20;4.20;;;-1.40;1.00;;;;;;5090648;28;20410;-58
2022/12/18 04:51:25;;;;;;;5.90;4.32;;;-1.40;1.00;;;;;;5090615;28;20418;-58
2022/12/18 04:53:52;;;;;;;6.03;4.00;;;-1.40;1.00;;;;;;5090541;28;20410;-58
2022/12/18 04:56:20;;;;;;;5.03;3.97;;;-1.40;1.00;;;;;;5090122;28;20463;-58
2022/12/18 04:58:46;;;;;;;5.63;3.75;;;-1.50;1.00;;;;;;5090385;28;20471;-58
2022/12/18 05:01:15;;;;;;;5.72;3.92;;;-1.50;8.50;;;;;;5090569;28;20406;-58
2022/12/18 05:03:42;;;;;;;5.22;3.80;;;-1.50;45.50;;;;;;5090520;28;20459;-59
2022/12/18 05:06:09;;;;;;;5.50;3.90;;;-1.60;48.40;;;;;;5090408;28;20440;-59
2022/12/18 05:08:37;;;;;;;5.18;3.70;;;-1.70;92.60;;;;;;5090310;28;20467;-58
2022/12/18 05:11:06;;;;;;;4.75;3.90;;;-1.60;93.40;;;;;;5090421;28;20503;-57
2022/12/18 05:13:34;;;;;;;4.95;3.63;;;-1.60;10.10;;;;;;5090451;28;21128;-56
2022/12/18 05:16:01;;;;;;;5.22;3.70;;;-1.70;43.50;;;;;;5090333;28;20406;-58
2022/12/18 05:18:27;;;;;;;5.07;3.70;;;-1.70;49.30;;;;;;5090394;28;20491;-57
2022/12/18 05:20:55;;;;;;;5.15;3.90;;;-1.70;5.90;;;;;;5090486;28;20402;-52
2022/12/18 05:23:23;;;;;;;6.72;4.00;;;-1.70;1.00;;;;;;5090835;28;20815;-55
2022/12/18 05:25:53;;;;;;;5.25;3.70;;;-1.70;1.00;;;;;;5090197;28;20417;-55
2022/12/18 05:28:20;;;;;;;6.15;4.10;;;-1.70;1.00;;;;;;5090519;28;20410;-56
2022/12/18 05:30:50;;;;;;;5.47;3.80;;;-1.70;1.00;;;;;;5090273;28;20429;-57
2022/12/18 05:33:17;;;;;;;5.63;3.88;;;-1.60;1.00;;;;;;5090373;28;20449;-57
2022/12/18 05:35:43;;;;;;;5.75;3.80;;;-1.70;1.00;;;;;;5090030;28;20452;-55
2022/12/18 05:38:10;;;;;;;6.13;3.67;;;-1.80;1.00;;;;;;5089997;28;20878;-58
2022/12/18 05:40:37;;;;;;;6.25;3.80;;;-1.70;1.00;;;;;;5090255;28;20410;-58
2022/12/18 05:43:05;;;;;;;5.50;3.80;;;-1.70;99.90;;;;;;5090384;28;20470;-57
2022/12/18 05:45:32;;;;;;;4.97;3.72;;;-1.70;99.90;;;;;;5090252;28;20406;-57
2022/12/18 05:47:58;;;;;;;5.75;4.10;;;-1.70;99.90;;;;;;5090108;28;20487;-58
2022/12/18 05:50:25;;;;;;;5.43;3.70;;;-1.60;99.90;;;;;;5089922;28;20450;-58
2022/12/18 05:52:52;;;;;;;5.85;3.83;;;-1.60;19.00;;;;;;5090017;28;20896;-58
2022/12/18 05:55:19;;;;;;;5.80;4.07;;;-1.60;3.10;;;;;;5091982;28;20414;-58
2022/12/18 05:57:45;;;;;;;6.28;4.00;;;-1.60;1.00;;;;;;5093407;28;20410;-58
2022/12/18 06:00:15;;;;;;;4.93;3.55;;;-1.50;1.00;;;;;;5110312;28;20957;-58
2022/12/18 06:02:42;;;;;;;5.93;3.90;;;-1.60;99.90;;;;;;5101930;28;20475;-56
2022/12/18 06:05:09;;;;;;;5.35;3.83;;;-1.50;99.90;;;;;;5093278;28;20413;-58
2022/12/18 06:07:35;;;;;;;5.88;3.53;;;-1.60;99.90;;;;;;5093464;28;20418;-58
2022/12/18 06:10:02;;;;;;;5.03;3.73;;;-1.60;99.90;;;;;;5093578;28;20422;-58
2022/12/18 06:12:28;;;;;;;5.43;3.85;;;-1.60;71.20;;;;;;5093450;28;20530;-58
2022/12/18 06:14:55;;;;;;;5.88;3.45;;;-1.60;99.90;;;;;;5093080;28;20884;-58
2022/12/18 06:17:23;;;;;;;5.65;4.03;;;-1.60;1.00;;;;;;5092574;28;20781;-58
2022/12/18 06:19:50;;;;;;;4.53;3.70;;;-1.50;99.90;;;;;;5093070;28;20831;-58
2022/12/18 06:22:16;;;;;;;5.40;3.85;;;-1.50;99.90;;;;;;5093267;28;21081;-59
2022/12/18 06:24:43;;;;;;;6.72;4.30;;;-1.50;99.90;;;;;;5093342;28;20467;-57
2022/12/18 06:27:10;;;;;;;5.93;4.05;;;-1.60;70.40;;;;;;5101426;28;20414;-59
2022/12/18 06:29:36;;;;;;;7.63;4.10;;;-1.60;22.60;;;;;;5092857;28;20413;-58
2022/12/18 06:32:03;;;;;;;6.20;4.35;;;-1.50;1.00;;;;;;5093140;28;20414;-58
2022/12/18 06:34:32;;;;;;;7.20;4.22;;;-1.50;1.00;;;;;;5092802;28;20459;-59
2022/12/18 06:36:58;;;;;;;6.10;4.28;;;-1.50;99.90;;;;;;5092514;28;20915;-58
2022/12/18 06:39:25;;;;;;;6.20;4.10;;;-1.50;1.00;;;;;;5092749;28;20410;-59
2022/12/18 06:41:52;;;;;;;7.13;4.70;;;-1.50;1.00;;;;;;5092933;28;20402;-58
2022/12/18 06:44:19;;;;;;;6.55;4.28;;;-1.60;1.00;;;;;;5092591;28;20880;-59
2022/12/18 06:46:45;;;;;;;6.82;4.43;;;-1.60;1.00;;;;;;5092499;28;20953;-58
2022/12/18 06:49:12;;;;;;;6.72;4.40;;;-1.50;99.90;;;;;;5092723;28;20414;-57
2022/12/18 06:51:41;;;;;;;6.47;4.57;;;-1.50;99.90;;;;;;5093096;28;20807;-57
2022/12/18 06:54:07;;;;;;;6.53;4.50;;;-1.50;99.90;;;;;;5093085;28;20582;-57
2022/12/18 06:56:34;;;;;;;6.82;4.20;;;-1.50;99.90;;;;;;5092277;28;20503;-59
2022/12/18 06:59:01;;;;;;;6.72;4.60;;;-1.50;1.00;;;;;;5092499;28;20418;-61
2022/12/18 07:01:28;;;;;;;8.13;4.65;;;-1.60;1.00;;;;;;5092783;28;20409;-58
2022/12/18 07:03:56;;;;;;;7.05;4.93;;;-1.50;10.40;;;;;;5092576;28;20414;-56
2022/12/18 07:06:24;;;;;;;8.33;5.10;;;-1.60;1.00;;;;;;5091739;28;20483;-55
2022/12/18 07:08:54;;;;;;;7.22;4.93;;;-1.50;1.00;;;;;;5092171;28;20448;-57
2022/12/18 07:11:21;;;;;;;7.50;5.27;;;-1.50;1.00;;;;;;5092268;28;20417;-57
2022/12/18 07:13:47;;;;;;;8.40;5.28;;;-1.50;1.00;;;;;;5092166;28;20467;-58
2022/12/18 07:16:16;;;;;;;7.85;5.18;;;-1.50;16.00;;;;;;5091772;28;20930;-57
2022/12/18 07:18:43;;;;;;;7.10;5.10;;;-1.50;1.00;;;;;;5092439;28;20414;-58
2022/12/18 07:21:11;;;;;;;7.95;4.65;;;-1.60;1.00;;;;;;5092156;28;20438;-56
2022/12/18 07:23:38;;;;;;;7.63;4.60;;;-1.60;1.00;;;;;;5092056;28;20401;-57
2022/12/18 07:26:08;;;;;;;7.20;4.85;;;-1.60;1.00;;;;;;5091702;28;20468;-58
2022/12/18 07:28:36;;;;;;;7.32;4.82;;;-1.70;1.00;;;;;;5091424;28;20473;-57
2022/12/18 07:31:04;;;;;;;7.32;4.82;;;-1.60;1.00;;;;;;5091990;28;20426;-58
2022/12/18 07:33:31;;;;;;;8.57;5.05;;;-1.50;1.00;;;;;;5091699;28;20908;-58
2022/12/18 07:35:59;;;;;;;8.25;4.88;;;-1.50;99.90;;;;;;5091709;28;20441;-57
2022/12/18 07:38:26;;;;;;;8.20;4.88;;;-1.40;99.90;;;;;;5091449;28;20467;-56
2022/12/18 07:40:53;;;;;;;8.13;4.93;;;-1.40;1.00;;;;;;5091825;28;20810;-58
2022/12/18 07:43:21;;;;;;;8.50;4.75;;;-1.40;1.00;;;;;;5091481;28;20413;-58
2022/12/18 07:45:50;;;;;;;7.05;4.93;;;-1.40;1.00;;;;;;5091708;28;20414;-58
2022/12/18 07:48:17;;;;;;;7.57;4.82;;;-1.40;99.90;;;;;;5091457;28;20501;-58
2022/12/18 07:50:43;;;;;;;7.07;4.78;;;-1.40;99.90;;;;;;5091559;28;20422;-58
2022/12/18 07:53:10;;;;;;;8.15;4.80;;;-1.30;99.90;;;;;;5091467;28;20471;-57
2022/12/18 07:55:37;;;;;;;6.82;4.57;;;-1.30;99.90;;;;;;5091342;28;20413;-59
2022/12/18 07:58:04;;;;;;;7.20;4.82;;;-1.30;1.00;;;;;;5090949;28;20471;-58
2022/12/18 08:00:32;;;;;;;7.40;4.78;;;-1.20;99.90;;;;;;5091433;28;20413;-57
2022/12/18 08:02:59;;;;;;;6.97;4.28;;;-1.20;99.90;;;;;;5091228;28;20940;-58
2022/12/18 08:05:26;;;;;;;8.03;4.30;;;-1.10;27.10;;;;;;5091012;28;20511;-56
2022/12/18 08:07:52;;;;;;;7.65;4.60;;;-1.00;99.90;;;;;;5091024;28;20418;-56
2022/12/18 08:10:20;;;;;;;6.60;4.40;;;-1.00;99.90;;;;;;5090991;28;20434;-58
2022/12/18 08:12:49;;;;;;;7.47;4.25;;;-1.00;99.90;;;;;;5091444;28;20414;-59
2022/12/18 08:15:16;;;;;;;7.70;4.47;;;-0.90;92.90;;;;;;5091012;28;20421;-58
2022/12/18 08:17:44;;;;;;;6.95;4.30;;;-0.80;1.00;;;;;;5089797;28;20418;-58
2022/12/18 08:20:11;;;;;;;7.15;4.20;;;-0.80;99.90;;;;;;5091007;28;20413;-58
2022/12/18 08:22:38;;;;;;;6.18;4.07;;;-0.80;99.90;;;;;;5090848;28;20409;-58
2022/12/18 08:25:06;;;;;;;5.85;3.65;;;-0.70;1.00;;;;;;5090761;28;20843;-58
2022/12/18 08:27:33;;;;;;;6.85;4.00;;;-0.60;1.00;;;;;;5090711;28;20836;-58
2022/12/18 08:29:59;;;;;;;6.32;4.32;;;-0.50;1.00;;;;;;5090887;28;20410;-58
2022/12/18 08:32:26;;;;;;;5.90;3.65;;;-0.30;99.90;;;;;;5090857;28;20450;-59
2022/12/18 08:34:54;;;;;;;6.70;4.22;;;-0.30;99.90;;;;;;5090927;28;20467;-58
2022/12/18 08:37:21;;;;;;;4.72;3.38;;;-0.10;14.60;;;;;;5090539;28;20409;-58
2022/12/18 08:39:48;;;;;;;6.10;3.45;;;0.00;1.00;;;;;;5090520;28;21045;-58
2022/12/18 08:44:58;;;;;;;4.97;3.00;;;0.20;99.90;;;;;;5091051;28;20436;-58
2022/12/18 08:47:25;;;;;;;5.60;2.97;;;0.30;99.90;;;;;;5090409;28;20414;-57
2022/12/18 08:49:53;;;;;;;4.75;3.20;;;0.50;99.90;;;;;;5091239;28;20438;-55
2022/12/18 08:52:20;;;;;;;4.80;3.45;;;0.60;99.90;;;;;;5090834;28;20434;-54
2022/12/18 08:54:47;;;;;;;5.00;3.17;;;0.60;99.90;;;;;;5091101;28;20418;-57
2022/12/18 08:57:13;;;;;;;4.80;2.90;;;0.70;59.20;;;;;;5090349;28;20421;-58
2022/12/18 08:59:40;;;;;;;4.53;3.10;;;0.80;62.90;;;;;;5090898;28;20414;-58
2022/12/18 09:02:07;;;;;;;4.47;2.95;;;0.90;21.00;;;;;;5090623;28;20884;-57
2022/12/18 09:04:33;;;;;;;4.88;3.10;;;1.00;1.00;;;;;;5090925;28;20916;-58
2022/12/18 09:07:01;;;;;;;5.68;3.03;;;1.10;1.00;;;;;;5090177;28;20471;-58
2022/12/18 09:09:28;;;;;;;3.63;2.67;;;1.10;1.00;;;;;;5090680;28;20418;-58
2022/12/18 09:11:55;;;;;;;4.78;3.00;;;1.30;1.00;;;;;;5090458;28;20421;-58
2022/12/18 09:14:21;;;;;;;5.28;3.22;;;1.40;1.00;;;;;;5090295;28;20410;-56
2022/12/18 09:16:48;;;;;;;3.88;2.67;;;1.40;1.00;;;;;;5090209;28;20421;-59
2022/12/18 09:19:15;;;;;;;4.68;3.08;;;1.50;1.00;;;;;;5090681;28;20409;-56
2022/12/18 09:21:45;;;;;;;5.25;3.03;;;1.50;1.00;;;;;;5090503;28;20877;-58
2022/12/18 09:24:14;;;;;;;3.75;2.65;;;1.70;1.00;;;;;;5090368;28;20497;-58
2022/12/18 09:26:41;;;;;;;5.00;3.17;;;1.70;1.00;;;;;;5090017;28;20418;-56
2022/12/18 09:29:08;;;;;;;4.55;3.03;;;1.60;1.00;;;;;;5091990;28;20413;-58
2022/12/18 09:31:35;;;;;;;3.85;2.63;;;1.60;1.00;;;;;;5094416;28;20453;-56
2022/12/18 09:34:02;;;;;;;5.50;2.97;;;1.70;1.00;;;;;;5094378;28;20749;-58
2022/12/18 09:36:29;;;;;;;5.25;3.17;;;1.70;1.00;;;;;;5093853;28;20455;-57
2022/12/18 09:38:56;;;;;;;4.65;2.83;;;1.80;1.00;;;;;;5093917;28;20467;-58
2022/12/18 09:41:40;;;;;;;4.03;3.17;;;1.90;1.00;;;;;;5093876;28;20425;-57
2022/12/18 09:44:21;;;;;;;4.40;2.90;;;2.00;1.00;;;;;;5093960;28;20470;-59
2022/12/18 09:46:53;;;;;;;5.03;3.35;;;2.10;1.00;;;;;;5093637;28;20413;-58
2022/12/18 09:49:24;;;;;;;3.90;2.60;;;2.10;99.90;;;;;;5093987;28;20409;-58
2022/12/18 09:51:56;;;;;;;5.13;2.67;;;2.10;99.90;;;;;;5093821;28;20426;-58
2022/12/18 09:54:26;;;;;;;4.40;2.50;;;2.20;99.90;;;;;;5094116;28;20409;-58
2022/12/18 09:56:54;;;;;;;3.85;2.95;;;2.20;99.90;;;;;;5093410;28;20413;-58
2022/12/18 09:59:27;;;;;;;4.03;2.83;;;2.20;99.90;;;;;;5093822;28;20459;-58
2022/12/18 10:01:54;;;;;;;4.40;2.50;;;2.20;99.90;;;;;;5093427;28;20460;-57
2022/12/18 10:04:20;;;;;;;4.82;2.50;;;2.30;99.90;;;;;;5093565;28;20823;-58
2022/12/18 10:06:53;;;;;;;3.92;2.78;;;2.30;99.90;;;;;;5092947;28;20885;-58
2022/12/18 10:09:29;;;;;;;4.20;2.95;;;2.40;99.90;;;;;;5093725;28;20413;-58
2022/12/18 10:12:07;;;;;;;3.53;2.77;;;2.40;99.90;;;;;;5094604;28;20277;-58
2022/12/18 10:14:41;;;;;;;3.40;2.20;;;2.40;99.90;;;;;;5095030;28;20501;-59
2022/12/18 10:17:16;;;;;;;4.97;2.17;;;2.40;99.90;;;;;;5094081;28;20526;-58
2022/12/18 10:19:49;;;;;;;4.00;2.10;;;2.40;99.90;;;;;;5094543;28;20939;-59
2022/12/18 10:22:33;;;;;;;7.57;2.97;;;2.30;99.90;;;;;;5094384;28;20526;-61
2022/12/18 10:25:06;;;;;;;4.87;2.33;;;2.30;99.90;;;;;;5094551;28;20459;-58
2022/12/18 10:27:34;;;;;;;3.60;1.40;;;2.40;99.90;;;;;;5093960;28;20534;-58
2022/12/18 10:30:01;;;;;;;3.60;2.30;;;2.40;99.90;;;;;;5094153;28;20505;-57
2022/12/18 10:32:30;;;;;;;3.80;2.47;;;2.40;99.90;;;;;;5094266;28;20481;-59
2022/12/18 10:34:58;;;;;;;3.27;2.17;;;2.40;99.90;;;;;;5094241;28;20453;-58
2022/12/18 10:37:27;;;;;;;3.43;2.00;;;2.40;99.90;;;;;;5093833;28;20524;-58
2022/12/18 10:40:09;;;;;;;3.03;1.57;;;2.50;99.90;;;;;;5093543;28;20452;-57
2022/12/18 10:42:38;;;;;;;4.47;2.50;;;2.50;99.90;;;;;;5094229;28;20498;-58
2022/12/18 10:45:10;;;;;;;4.40;2.20;;;2.50;99.90;;;;;;5094111;28;20452;-58
2022/12/18 10:47:37;;;;;;;4.27;2.40;;;2.60;99.90;;;;;;5093859;28;20524;-56
2022/12/18 10:50:04;;;;;;;3.87;2.47;;;2.60;99.90;;;;;;5094070;28;20526;-58
2022/12/18 10:52:31;;;;;;;3.27;1.90;;;2.60;99.90;;;;;;5093761;28;20477;-59
2022/12/18 10:55:01;;;;;;;3.50;2.57;;;2.60;99.90;;;;;;5093712;28;20951;-58
2022/12/18 10:57:35;;;;;;;5.47;2.70;;;2.70;99.90;;;;;;5093308;28;20523;-59
2022/12/18 11:00:23;;;;;;;4.27;2.40;;;2.70;99.90;;;;;;5093791;28;20445;-59
2022/12/18 11:02:50;;;;;;;2.83;2.30;;;2.70;99.90;;;;;;5093641;28;20456;-58
2022/12/18 11:05:29;;;;;;;3.93;2.63;;;2.70;99.90;;;;;;5093496;28;20544;-59
2022/12/18 11:07:56;;;;;;;4.93;2.37;;;2.80;99.90;;;;;;5093593;28;20553;-59
2022/12/18 11:10:27;;;;;;;4.67;2.63;;;2.80;99.90;;;;;;5093648;28;20458;-58
2022/12/18 11:12:53;;;;;;;3.93;2.83;;;2.80;99.90;;;;;;5093423;28;20573;-58
2022/12/18 11:15:25;;;;;;;5.27;2.80;;;2.80;99.90;;;;;;5093215;28;20446;-58
2022/12/18 11:17:53;;;;;;;5.20;3.03;;;2.90;99.90;;;;;;5093023;28;20465;-59
2022/12/18 11:20:31;;;;;;;2.60;1.60;;;2.90;99.90;;;;;;5093538;28;20507;-57
2022/12/18 11:23:01;;;;;;;3.60;2.30;;;2.90;99.90;;;;;;5093257;28;20980;-58
2022/12/18 11:25:28;;;;;;;3.90;2.93;;;2.90;99.90;;;;;;5093290;28;20960;-58
2022/12/18 11:27:57;;;;;;;3.70;2.20;;;2.90;99.90;;;;;;5092961;28;20462;-58
2022/12/18 11:30:27;;;;;;;4.70;2.63;;;2.90;99.90;;;;;;5092835;28;20914;-58
2022/12/18 11:32:59;;;;;;;5.47;2.77;;;2.90;99.90;;;;;;5093103;28;20490;-61
2022/12/18 11:35:38;;;;;;;3.37;2.17;;;3.00;99.90;;;;;;5092846;28;20458;-58
2022/12/18 11:38:11;;;;;;;4.63;2.30;;;3.00;99.90;;;;;;5092167;28;20473;-62
2022/12/18 11:40:43;;;;;;;6.07;2.63;;;3.10;99.90;;;;;;5092299;28;20520;-59
2022/12/18 11:43:14;;;;;;;5.37;2.67;;;3.20;99.90;;;;;;5092153;28;20439;-62
2022/12/18 11:45:50;;;;;;;5.40;2.93;;;3.10;99.90;;;;;;5092296;28;20856;-59
2022/12/18 11:48:22;;;;;;;3.87;2.23;;;3.10;99.90;;;;;;5092510;28;20531;-60
2022/12/18 11:50:51;;;;;;;3.87;2.60;;;3.20;99.90;;;;;;5092685;28;20505;-61
2022/12/18 11:53:19;;;;;;;4.37;2.83;;;3.20;99.90;;;;;;5091296;28;20485;-62
2022/12/18 11:55:55;;;;;;;5.03;2.90;;;3.20;99.90;;;;;;5092013;28;20455;-61
2022/12/18 11:58:38;;;;;;;3.80;2.73;;;3.30;99.90;;;;;;5092353;28;20466;-61
2022/12/18 12:01:18;;;;;;;5.73;3.30;;;3.30;99.90;;;;;;5092293;28;20452;-61
2022/12/18 12:04:05;;;;;;;5.67;2.73;;;3.20;99.90;;;;;;5092058;28;20511;-62
2022/12/18 12:06:39;;;;;;;6.13;2.93;;;3.30;99.90;;;;;;5098204;28;20453;-61
2022/12/18 12:09:14;;;;;;;4.57;3.27;;;3.30;99.90;;;;;;5101526;28;20448;-61
2022/12/18 12:11:53;;;;;;;4.30;3.03;;;3.30;99.90;;;;;;5108159;28;20476;-61
2022/12/18 12:14:34;;;;;;;4.13;2.60;;;3.40;99.90;;;;;;5112252;28;20449;-62
2022/12/18 12:17:12;;;;;;;4.47;3.27;;;3.40;99.90;;;;;;5112124;28;20477;-62
2022/12/18 12:19:49;;;;;;;5.40;3.30;;;3.50;99.90;;;;;;5112231;28;20448;-62
2022/12/18 12:22:24;;;;;;;8.53;3.30;;;3.40;99.90;;;;;;5111967;28;20449;-62
2022/12/18 12:25:03;;;;;;;5.57;2.90;;;3.40;99.90;;;;;;5103353;28;20505;-62
2022/12/18 12:27:41;;;;;;;5.87;3.80;;;3.30;99.90;;;;;;5100261;28;20466;-62
2022/12/18 12:30:09;;;;;;;5.27;2.97;;;3.40;99.90;;;;;;5092836;28;20453;-62
2022/12/18 12:32:54;;;;;;;5.17;3.20;;;3.30;99.90;;;;;;5092023;28;20489;-64
2022/12/18 12:35:30;;;;;;;4.97;3.30;;;3.30;99.90;;;;;;5096139;28;20980;-63
2022/12/18 12:38:08;;;;;;;4.93;3.10;;;3.40;99.90;;;;;;5103349;28;20494;-59
2022/12/18 12:40:40;;;;;;;6.03;3.37;;;3.30;99.90;;;;;;5112086;28;20449;-59
2022/12/18 12:43:19;;;;;;;5.77;3.50;;;3.30;99.90;;;;;;5100485;28;20442;-62
2022/12/18 12:45:50;;;;;;;5.10;3.10;;;3.30;99.90;;;;;;5099614;28;21085;-62
2022/12/18 12:48:28;;;;;;;5.63;3.53;;;3.30;99.90;;;;;;5095584;28;20453;-62
2022/12/18 12:50:55;;;;;;;6.60;3.70;;;3.30;99.90;;;;;;5111852;28;20506;-60
2022/12/18 12:53:27;;;;;;;5.83;3.13;;;3.20;99.90;;;;;;5111930;28;20481;-60
2022/12/18 12:55:55;;;;;;;6.03;3.67;;;3.20;99.90;;;;;;5101860;28;20507;-59
2022/12/18 12:58:32;;;;;;;6.03;3.60;;;3.20;99.90;;;;;;5105061;28;20501;-61
2022/12/18 13:01:08;;;;;;;7.00;3.70;;;3.20;99.90;;;;;;5111829;28;20646;-57
2022/12/18 13:03:44;;;;;;;6.40;3.57;;;3.20;99.90;;;;;;5112635;28;20448;-58
2022/12/18 13:06:17;;;;;;;8.47;3.53;;;3.10;99.90;;;;;;5115045;28;20506;-61
2022/12/18 13:08:56;;;;;;;9.10;4.10;;;3.10;99.90;;;;;;5115982;28;20465;-63
2022/12/18 13:14:24;;;;;;;8.73;4.27;;;2.90;99.90;;;;;;5115486;28;20417;-65
2022/12/18 13:16:50;;;;;;;6.10;3.87;;;2.90;99.90;;;;;;5115200;28;20997;-64